Hildegaard — C6QU3 — position and weather

sailwx.info

Track history (hours):
 
Tides and Currents Weather Stations Pressure Air Temp Water Temp Dewpoint Dewpoint Depression Visibility Wind Speed Wind Dir Waves Ship Positions

Hildegaard

Last reported at 2016-Apr-30 05:33 UTC. Time now 2016-May-01 02:19 UTC.
Position N 55°50' W 007°01'.

Length 248 m; draft 8.6 m.

Type: Ship (hazmat cat A). MMSI: 308574000.

Date/timePositionNaut miles runAvg speedWind from/ knotsBaromVisibWave heightAir tempDewpointWater temp
2016-Apr-30 05:33N 55°50' W 007°01'8 7.0
2016-Apr-30 04:29N 55°43' W 006°54'6 5.9
2016-Apr-30 03:33N 55°39' W 006°48'6 5.7
2016-Apr-30 02:33N 55°36' W 006°40'5 5.2
2016-Apr-30 01:33N 55°33' W 006°32'5 5.3
2016-Apr-30 00:33N 55°30' W 006°24'5 5.1
2016-Apr-29 23:33N 55°27' W 006°17'6 6.3
2016-Apr-29 22:33N 55°25' W 006°06'7 6.6
2016-Apr-29 21:33N 55°21' W 005°58'8 7.7
2016-Apr-29 20:33N 55°14' W 005°50'7 7.5
2016-Apr-29 19:33N 55°08' W 005°42'7 7.2
2016-Apr-29 18:32N 55°02' W 005°35'7 6.8
2016-Apr-29 17:33N 54°57' W 005°28'7 6.7
2016-Apr-29 16:33N 54°52' W 005°21'6 6.3
2016-Apr-29 15:34N 54°46' W 005°15'9 8.6
2016-Apr-29 14:33N 54°38' W 005°10'7 7.1
2016-Apr-29 13:33N 54°32' W 005°06'5 5.3
2016-Apr-29 12:33N 54°27' W 005°04'6 5.8
2016-Apr-29 11:33N 54°21' W 005°01'6 5.7
2016-Apr-29 10:33N 54°15' W 005°01'6 5.8
2016-Apr-29 09:33N 54°10' W 005°03'6 6.0
2016-Apr-29 08:33N 54°04' W 005°04'6 6.2
2016-Apr-29 07:32N 53°57' W 005°06'  
2016-Apr-21 15:25N 51°48' W 005°19'0 0.0
2016-Apr-21 14:19N 51°48' W 005°19'0 0.0
2016-Apr-21 06:28N 51°48' W 005°19'0 0.0
2016-Apr-20 20:31N 51°48' W 005°19'0 0.2
2016-Apr-20 19:16N 51°48' W 005°19'  
Track history (hours):
 
Tides and Currents Weather Stations Pressure Air Temp Water Temp Dewpoint Dewpoint Depression Visibility Wind Speed Wind Dir Waves Ship Positions

Hildegaard

Last reported at 2016-Apr-30 05:33 UTC. Time now 2016-May-01 02:19 UTC.
Position N 55°50' W 007°01'.

Length 248 m; draft 8.6 m.

Type: Ship (hazmat cat A). MMSI: 308574000.

Date/timePositionNaut miles runAvg speedWind from/ knotsBaromVisibWave heightAir tempDewpointWater temp
2016-Apr-30 05:33N 55°50' W 007°01'8 7.0
2016-Apr-30 04:29N 55°43' W 006°54'6 5.9
2016-Apr-30 03:33N 55°39' W 006°48'6 5.7
2016-Apr-30 02:33N 55°36' W 006°40'5 5.2
2016-Apr-30 01:33N 55°33' W 006°32'5 5.3
2016-Apr-30 00:33N 55°30' W 006°24'5 5.1
2016-Apr-29 23:33N 55°27' W 006°17'6 6.3
2016-Apr-29 22:33N 55°25' W 006°06'7 6.6
2016-Apr-29 21:33N 55°21' W 005°58'8 7.7
2016-Apr-29 20:33N 55°14' W 005°50'7 7.5
2016-Apr-29 19:33N 55°08' W 005°42'7 7.2
2016-Apr-29 18:32N 55°02' W 005°35'7 6.8
2016-Apr-29 17:33N 54°57' W 005°28'7 6.7
2016-Apr-29 16:33N 54°52' W 005°21'6 6.3
2016-Apr-29 15:34N 54°46' W 005°15'9 8.6
2016-Apr-29 14:33N 54°38' W 005°10'7 7.1
2016-Apr-29 13:33N 54°32' W 005°06'5 5.3
2016-Apr-29 12:33N 54°27' W 005°04'6 5.8
2016-Apr-29 11:33N 54°21' W 005°01'6 5.7
2016-Apr-29 10:33N 54°15' W 005°01'6 5.8
2016-Apr-29 09:33N 54°10' W 005°03'6 6.0
2016-Apr-29 08:33N 54°04' W 005°04'6 6.2
2016-Apr-29 07:32N 53°57' W 005°06'  
2016-Apr-21 15:25N 51°48' W 005°19'0 0.0
2016-Apr-21 14:19N 51°48' W 005°19'0 0.0
2016-Apr-21 06:28N 51°48' W 005°19'0 0.0
2016-Apr-20 20:31N 51°48' W 005°19'0 0.2
2016-Apr-20 19:16N 51°48' W 005°19'  

Dump ship's entire track history